Time,TemperatureF,DewpointF,PressureIn,WindDirection,WindDirectionDegrees,WindSpeedMPH,WindSpeedGustMPH,Humidity,HourlyPrecipIn,Conditions,Clouds,dailyrainin,SolarRadiationWatts/m^2,SoftwareType,DateUTC
2013-06-16 00:22:00,78.0,42.0,-100.00,ENE,63,0.0,3.0,28,0.00,,,0.00,0.000000,,2013-06-16 07:22:00,
2013-06-16 00:32:00,78.0,42.0,-100.00,ENE,63,0.0,3.0,28,0.00,,,0.00,0.000000,,2013-06-16 07:32:00,
2013-06-16 00:43:00,78.0,42.0,-100.00,ENE,63,0.0,3.0,28,0.00,,,0.00,0.000000,,2013-06-16 07:43:00,
2013-06-16 00:52:00,77.0,44.0,-100.00,SSW,195,0.0,4.0,31,0.00,,,0.00,0.000000,,2013-06-16 07:52:00,
2013-06-16 01:11:00,77.0,44.0,-100.00,SSW,195,0.0,4.0,31,0.00,,,0.00,0.000000,,2013-06-16 08:11:00,
2013-06-16 01:22:00,77.0,44.0,-100.00,SSW,195,0.0,4.0,31,0.00,,,0.00,0.000000,,2013-06-16 08:22:00,
2013-06-16 01:33:00,77.0,44.0,-100.00,SSW,195,0.0,4.0,31,0.00,,,0.00,0.000000,,2013-06-16 08:33:00,
2013-06-16 01:43:00,77.0,44.0,-100.00,SSW,195,0.0,4.0,31,0.00,,,0.00,0.000000,,2013-06-16 08:43:00,
2013-06-16 01:52:00,73.0,41.0,-100.00,WNW,302,0.0,5.0,32,0.00,,,0.00,0.000000,,2013-06-16 08:52:00,
2013-06-16 02:22:00,73.0,41.0,-100.00,WNW,302,0.0,5.0,32,0.00,,,0.00,0.000000,,2013-06-16 09:22:00,
2013-06-16 02:33:00,73.0,41.0,-100.00,WNW,302,0.0,5.0,32,0.00,,,0.00,0.000000,,2013-06-16 09:33:00,
2013-06-16 02:42:00,73.0,41.0,-100.00,WNW,302,0.0,5.0,32,0.00,,,0.00,0.000000,,2013-06-16 09:42:00,
2013-06-16 02:52:00,73.0,41.0,-100.00,WSW,251,0.0,4.0,31,0.00,,,0.00,0.000000,,2013-06-16 09:52:00,
2013-06-16 03:12:00,73.0,41.0,-100.00,WSW,251,0.0,4.0,31,0.00,,,0.00,0.000000,,2013-06-16 10:12:00,
2013-06-16 03:22:00,73.0,41.0,-100.00,WSW,251,0.0,4.0,31,0.00,,,0.00,0.000000,,2013-06-16 10:22:00,
2013-06-16 03:33:00,73.0,41.0,-100.00,WSW,251,0.0,4.0,31,0.00,,,0.00,0.000000,,2013-06-16 10:33:00,
2013-06-16 03:42:00,73.0,41.0,-100.00,WSW,251,0.0,4.0,31,0.00,,,0.00,0.000000,,2013-06-16 10:42:00,
2013-06-16 03:52:00,72.0,34.0,-100.00,WSW,238,0.0,4.0,25,0.00,,,0.00,0.000000,,2013-06-16 10:52:00,
2013-06-16 04:33:00,72.0,34.0,-100.00,WSW,238,0.0,4.0,25,0.00,,,0.00,0.000000,,2013-06-16 11:33:00,
2013-06-16 04:43:00,72.0,34.0,-100.00,WSW,238,0.0,4.0,25,0.00,,,0.00,0.000000,,2013-06-16 11:43:00,
2013-06-16 04:52:00,70.0,36.0,-100.00,North,1,0.0,4.0,29,0.00,,,0.00,0.000000,,2013-06-16 11:52:00,
2013-06-16 05:11:00,70.0,36.0,-100.00,North,1,0.0,4.0,29,0.00,,,0.00,0.000000,,2013-06-16 12:11:00,
2013-06-16 05:22:00,70.0,36.0,-100.00,North,1,0.0,4.0,29,0.00,,,0.00,0.000000,,2013-06-16 12:22:00,
2013-06-16 05:32:00,70.0,36.0,-100.00,North,1,0.0,4.0,29,0.00,,,0.00,0.000000,,2013-06-16 12:32:00,
2013-06-16 05:42:00,70.0,36.0,-100.00,North,1,0.0,4.0,29,0.00,,,0.00,0.000000,,2013-06-16 12:42:00,
2013-06-16 05:52:00,70.0,35.0,-100.00,South,182,0.0,0.0,28,0.00,,,0.00,3.000000,,2013-06-16 12:52:00,
2013-06-16 06:22:00,70.0,35.0,-100.00,South,182,0.0,0.0,28,0.00,,,0.00,3.000000,,2013-06-16 13:22:00,
2013-06-16 06:34:00,70.0,35.0,-100.00,South,182,0.0,0.0,28,0.00,,,0.00,3.000000,,2013-06-16 13:34:00,
2013-06-16 06:42:00,70.0,35.0,-100.00,South,182,0.0,0.0,28,0.00,,,0.00,3.000000,,2013-06-16 13:42:00,
2013-06-16 06:52:00,77.0,45.0,-100.00,SSE,167,3.0,5.0,32,0.00,,,0.00,141.000000,,2013-06-16 13:52:00,
2013-06-16 07:22:00,77.0,45.0,-100.00,SSE,167,3.0,5.0,32,0.00,,,0.00,141.000000,,2013-06-16 14:22:00,
2013-06-16 07:34:00,77.0,45.0,-100.00,SSE,167,3.0,5.0,32,0.00,,,0.00,141.000000,,2013-06-16 14:34:00,
2013-06-16 07:43:00,77.0,45.0,-100.00,SSE,167,3.0,5.0,32,0.00,,,0.00,141.000000,,2013-06-16 14:43:00,
2013-06-16 08:52:00,88.0,39.0,-100.00,ENE,64,3.0,5.0,18,0.00,,,0.00,638.000000,,2013-06-16 15:52:00,
2013-06-16 09:33:00,88.0,39.0,-100.00,ENE,64,3.0,5.0,18,0.00,,,0.00,638.000000,,2013-06-16 16:33:00,
2013-06-16 09:43:00,88.0,39.0,-100.00,ENE,64,3.0,5.0,18,0.00,,,0.00,638.000000,,2013-06-16 16:43:00,
2013-06-16 09:52:00,94.0,27.0,-100.00,ESE,112,2.0,5.0,9,0.00,,,0.00,869.000000,,2013-06-16 16:52:00,
2013-06-16 10:43:00,94.0,27.0,-100.00,ESE,112,2.0,5.0,9,0.00,,,0.00,869.000000,,2013-06-16 17:43:00,
2013-06-16 10:52:00,96.0,25.0,-100.00,NE,42,4.0,7.0,8,0.00,,,0.00,1064.000000,,2013-06-16 17:52:00,
2013-06-16 11:22:00,96.0,25.0,-100.00,NE,42,4.0,7.0,8,0.00,,,0.00,1064.000000,,2013-06-16 18:22:00,
2013-06-16 11:33:00,96.0,25.0,-100.00,NE,42,4.0,7.0,8,0.00,,,0.00,1064.000000,,2013-06-16 18:33:00,
2013-06-16 11:43:00,96.0,25.0,-100.00,NE,42,4.0,7.0,8,0.00,,,0.00,1064.000000,,2013-06-16 18:43:00,
2013-06-16 14:22:00,103.0,14.0,-100.00,East,91,5.0,10.0,4,0.00,,,0.00,1244.000000,,2013-06-16 21:22:00,
2013-06-16 14:32:00,103.0,14.0,-100.00,East,91,5.0,10.0,4,0.00,,,0.00,1244.000000,,2013-06-16 21:32:00,
2013-06-16 14:42:00,103.0,14.0,-100.00,East,91,5.0,10.0,4,0.00,,,0.00,1244.000000,,2013-06-16 21:42:00,
2013-06-16 14:52:00,105.0,20.0,-100.00,ENE,63,7.0,16.0,5,0.00,,,0.00,1163.000000,,2013-06-16 21:52:00,
2013-06-16 15:12:00,105.0,20.0,-100.00,ENE,63,7.0,16.0,5,0.00,,,0.00,1163.000000,,2013-06-16 22:12:00,
2013-06-16 15:22:00,105.0,20.0,-100.00,ENE,63,7.0,16.0,5,0.00,,,0.00,1163.000000,,2013-06-16 22:22:00,
2013-06-16 15:32:00,105.0,20.0,-100.00,ENE,63,7.0,16.0,5,0.00,,,0.00,1163.000000,,2013-06-16 22:32:00,
2013-06-16 15:41:00,105.0,20.0,-100.00,ENE,63,7.0,16.0,5,0.00,,,0.00,1163.000000,,2013-06-16 22:41:00,
2013-06-16 16:11:00,105.0,25.0,-100.00,NW,318,3.0,12.0,6,0.00,,,0.00,1015.000000,,2013-06-16 23:11:00,
2013-06-16 16:22:00,105.0,25.0,-100.00,NW,318,3.0,12.0,6,0.00,,,0.00,1015.000000,,2013-06-16 23:22:00,
2013-06-16 16:32:00,105.0,25.0,-100.00,NW,318,3.0,12.0,6,0.00,,,0.00,1015.000000,,2013-06-16 23:32:00,
2013-06-16 16:42:00,105.0,25.0,-100.00,NW,318,3.0,12.0,6,0.00,,,0.00,1015.000000,,2013-06-16 23:42:00,
2013-06-16 16:51:00,105.0,25.0,-100.00,NW,318,3.0,12.0,6,0.00,,,0.00,1015.000000,,2013-06-16 23:51:00,
2013-06-16 16:52:00,105.0,29.0,-100.00,NNE,24,7.0,14.0,7,0.00,,,0.00,802.000000,,2013-06-16 23:52:00,
2013-06-16 17:11:00,105.0,29.0,-100.00,NNE,24,7.0,14.0,7,0.00,,,0.00,802.000000,,2013-06-17 00:11:00,
2013-06-16 17:22:00,105.0,29.0,-100.00,NNE,24,7.0,14.0,7,0.00,,,0.00,802.000000,,2013-06-17 00:22:00,
2013-06-16 17:32:00,105.0,29.0,-100.00,NNE,24,7.0,14.0,7,0.00,,,0.00,802.000000,,2013-06-17 00:32:00,
2013-06-16 17:42:00,105.0,29.0,-100.00,NNE,24,7.0,14.0,7,0.00,,,0.00,802.000000,,2013-06-17 00:42:00,
2013-06-16 17:52:00,102.0,30.0,-100.00,North,3,8.0,15.0,8,0.00,,,-99.99,129.000000,,2013-06-17 00:52:00,
2013-06-16 18:11:00,102.0,30.0,-100.00,North,3,8.0,15.0,8,0.00,,,-99.99,129.000000,,2013-06-17 01:11:00,
2013-06-16 18:22:00,102.0,30.0,-100.00,North,3,8.0,15.0,8,0.00,,,-99.99,129.000000,,2013-06-17 01:22:00,
2013-06-16 18:32:00,102.0,30.0,-100.00,North,3,8.0,15.0,8,0.00,,,-99.99,129.000000,,2013-06-17 01:32:00,
2013-06-16 18:43:00,102.0,30.0,-100.00,North,3,8.0,15.0,8,0.00,,,-99.99,129.000000,,2013-06-17 01:43:00,
2013-06-16 19:12:00,100.0,34.0,-100.00,North,355,5.0,14.0,10,0.00,,,0.00,48.000000,,2013-06-17 02:12:00,
2013-06-16 19:22:00,100.0,34.0,-100.00,North,355,5.0,14.0,10,0.00,,,0.00,48.000000,,2013-06-17 02:22:00,
2013-06-16 19:43:00,100.0,34.0,-100.00,North,355,5.0,14.0,10,0.00,,,0.00,48.000000,,2013-06-17 02:43:00,
2013-06-16 19:52:00,94.0,39.0,-100.00,NNW,332,4.0,12.0,15,0.00,,,0.00,24.000000,,2013-06-17 02:52:00,
2013-06-16 20:22:00,94.0,39.0,-100.00,NNW,332,4.0,12.0,15,0.00,,,0.00,24.000000,,2013-06-17 03:22:00,
2013-06-16 20:33:00,94.0,39.0,-100.00,NNW,332,4.0,12.0,15,0.00,,,0.00,24.000000,,2013-06-17 03:33:00,
2013-06-16 20:44:00,94.0,39.0,-100.00,NNW,332,4.0,12.0,15,0.00,,,0.00,24.000000,,2013-06-17 03:44:00,
2013-06-16 20:52:00,91.0,42.0,-100.00,SE,135,0.0,7.0,18,0.00,,,0.00,1.000000,,2013-06-17 03:52:00,
2013-06-16 21:12:00,91.0,42.0,-100.00,SE,135,0.0,7.0,18,0.00,,,0.00,1.000000,,2013-06-17 04:12:00,
2013-06-16 21:22:00,91.0,42.0,-100.00,SE,135,0.0,7.0,18,0.00,,,0.00,1.000000,,2013-06-17 04:22:00,
2013-06-16 21:33:00,91.0,42.0,-100.00,SE,135,0.0,7.0,18,0.00,,,0.00,1.000000,,2013-06-17 04:33:00,
2013-06-16 21:42:00,91.0,42.0,-100.00,SE,135,0.0,7.0,18,0.00,,,0.00,1.000000,,2013-06-17 04:42:00,
2013-06-16 21:52:00,86.0,40.0,-100.00,SSE,161,0.0,4.0,20,0.00,,,0.00,0.000000,,2013-06-17 04:52:00,
2013-06-16 22:22:00,86.0,40.0,-100.00,SSE,161,0.0,4.0,20,0.00,,,0.00,0.000000,,2013-06-17 05:22:00,
2013-06-16 22:33:00,86.0,40.0,-100.00,SSE,161,0.0,4.0,20,0.00,,,0.00,0.000000,,2013-06-17 05:33:00,
2013-06-16 22:44:00,86.0,40.0,-100.00,SSE,161,0.0,4.0,20,0.00,,,0.00,0.000000,,2013-06-17 05:44:00,
2013-06-16 22:52:00,85.0,44.0,-100.00,NW,312,0.0,3.0,24,0.00,,,0.00,0.000000,,2013-06-17 05:52:00,
2013-06-16 23:22:00,85.0,44.0,-100.00,NW,312,0.0,3.0,24,0.00,,,0.00,0.000000,,2013-06-17 06:22:00,
2013-06-16 23:32:00,85.0,44.0,-100.00,NW,312,0.0,3.0,24,0.00,,,0.00,0.000000,,2013-06-17 06:32:00,
2013-06-16 23:43:00,85.0,44.0,-100.00,NW,312,0.0,3.0,24,0.00,,,0.00,0.000000,,2013-06-17 06:43:00,
2013-06-16 23:52:00,83.0,44.0,-100.00,West,263,0.0,3.0,25,0.00,,,0.00,0.000000,,2013-06-17 06:52:00,